A 511 Airport
RKSG : now visible

Airfield :











YOU CAN JOIN US ON...

 
LOGIN :

Register | Disclaimer

   EN    FR    IT 

 









Legend :    VFR   Marginal VFR   IFR   Intensive IFR   Very Intensive IFR
Visi :
Ceiling :
>= 8 km
>= 3000ft
5 to 8 km
1000 to 3000 ft
1500m to 5 km
500 to 1000 ft
800 to 1500m
200 to 500 ft
< 800m
< 200 ft
Symbols :   Thunderstorms  Fog  Heavy snow  Heavy precipitations  Wind > 20 kt






- Airport Elevation : 51 ft


RKSG - A 511

CURRENT METAR :
  • 230755Z 30009KT 10SM CLR 25/15 A2980 RMK AO2A SLP094 T02450146 $

EXPIRED METARs :
  • 230655Z 30006KT 10SM CLR 26/11 A2979 RMK AO2A SLP091 T02620111 $
  • 230555Z 32008KT 10SM CLR 26/11 A2981 RMK SLPNO T02620107 10267 20189 57020 $
  • 230526Z VRB06KT 10SM FEW190 26/12 A2982 RMK SLPNO $
  • 230455Z 30007KT 10SM FEW110 FEW180 SCT200 27/13 A2983 RMK AO2A SLP104 T02650125 $
  • 230355Z 00000KT 6SM HZ FEW180 FEW200 25/15 A2984 RMK AO2A SLP107 T02540145 $

TAF TAF RKSG
Valid from the 23 at 03:00 until the 24 at 09:00 UTC


230300Z 2303/2409 VRB06KT 9999 SKC QNH2982INS
BECMG 2317/2318 VRB06KT 8000 BR OVC005 QNH2986INS
BECMG 2402/2403 VRB06KT 8000 BR BKN010 QNH2990INS TX24/2305Z TN13/2316Z



MET'MAP, your aeronautical weather chart ! - Copyright ORBIFLY December 2007 - Disclaimer

ORBIFLY MET'MAP TEAM :

Programming & Development : Alexandra Zaïnal
Original concept : Baudouin d'Aumeries
Technical & hardware support : Manuel Goepfert
Assistance : Marc-Olivier Méhu




SOURCES & CREDITS :

   NOAA       Earth
Advisory